sensor_id;sensor_type;location;lat;lon;timestamp;P1;durP1;ratioP1;P2;durP2;ratioP2
12332;SDS011;6232;48.094;11.288;2023-05-14T00:01:24;6.17;;;5.43;;
12332;SDS011;6232;48.094;11.288;2023-05-14T00:04:10;7.20;;;5.53;;
12332;SDS011;6232;48.094;11.288;2023-05-14T00:06:55;8.00;;;5.70;;
12332;SDS011;6232;48.094;11.288;2023-05-14T00:09:41;7.63;;;5.60;;
12332;SDS011;6232;48.094;11.288;2023-05-14T00:12:26;6.20;;;5.60;;
12332;SDS011;6232;48.094;11.288;2023-05-14T00:15:12;6.57;;;5.83;;
12332;SDS011;6232;48.094;11.288;2023-05-14T00:17:58;8.70;;;6.80;;
12332;SDS011;6232;48.094;11.288;2023-05-14T00:20:44;7.73;;;6.23;;
12332;SDS011;6232;48.094;11.288;2023-05-14T00:23:29;6.70;;;5.90;;
12332;SDS011;6232;48.094;11.288;2023-05-14T00:26:15;7.70;;;6.03;;
12332;SDS011;6232;48.094;11.288;2023-05-14T00:29:00;6.70;;;5.90;;
12332;SDS011;6232;48.094;11.288;2023-05-14T00:31:46;6.47;;;5.10;;
12332;SDS011;6232;48.094;11.288;2023-05-14T00:34:31;8.07;;;5.57;;
12332;SDS011;6232;48.094;11.288;2023-05-14T00:37:17;8.20;;;6.20;;
12332;SDS011;6232;48.094;11.288;2023-05-14T00:40:02;9.00;;;6.00;;
12332;SDS011;6232;48.094;11.288;2023-05-14T00:42:48;8.83;;;6.53;;
12332;SDS011;6232;48.094;11.288;2023-05-14T00:45:34;7.40;;;5.90;;
12332;SDS011;6232;48.094;11.288;2023-05-14T00:48:20;7.00;;;6.30;;
12332;SDS011;6232;48.094;11.288;2023-05-14T00:51:05;10.17;;;6.23;;
12332;SDS011;6232;48.094;11.288;2023-05-14T00:53:52;8.47;;;6.87;;
12332;SDS011;6232;48.094;11.288;2023-05-14T00:56:38;7.70;;;6.90;;
12332;SDS011;6232;48.094;11.288;2023-05-14T00:59:24;10.50;;;8.00;;
12332;SDS011;6232;48.094;11.288;2023-05-14T01:02:10;12.53;;;9.37;;
12332;SDS011;6232;48.094;11.288;2023-05-14T01:04:55;16.63;;;9.20;;
12332;SDS011;6232;48.094;11.288;2023-05-14T01:07:59;14.97;;;9.60;;
12332;SDS011;6232;48.094;11.288;2023-05-14T01:10:57;15.00;;;9.50;;
12332;SDS011;6232;48.094;11.288;2023-05-14T01:13:50;16.47;;;11.27;;
12332;SDS011;6232;48.094;11.288;2023-05-14T01:16:39;17.63;;;11.73;;
12332;SDS011;6232;48.094;11.288;2023-05-14T01:19:46;19.13;;;12.80;;
12332;SDS011;6232;48.094;11.288;2023-05-14T01:22:30;18.07;;;14.87;;
12332;SDS011;6232;48.094;11.288;2023-05-14T01:25:16;19.87;;;13.80;;
12332;SDS011;6232;48.094;11.288;2023-05-14T01:28:11;21.10;;;14.47;;
12332;SDS011;6232;48.094;11.288;2023-05-14T01:31:17;19.50;;;14.63;;
12332;SDS011;6232;48.094;11.288;2023-05-14T01:34:04;22.87;;;16.10;;
12332;SDS011;6232;48.094;11.288;2023-05-14T01:36:50;32.40;;;18.67;;
12332;SDS011;6232;48.094;11.288;2023-05-14T01:39:37;25.53;;;17.10;;
12332;SDS011;6232;48.094;11.288;2023-05-14T01:42:22;26.53;;;18.77;;
12332;SDS011;6232;48.094;11.288;2023-05-14T01:45:08;25.57;;;17.77;;
12332;SDS011;6232;48.094;11.288;2023-05-14T01:47:54;31.97;;;18.90;;
12332;SDS011;6232;48.094;11.288;2023-05-14T01:50:39;25.67;;;18.70;;
12332;SDS011;6232;48.094;11.288;2023-05-14T01:53:25;23.60;;;16.63;;
12332;SDS011;6232;48.094;11.288;2023-05-14T01:56:10;26.43;;;17.67;;
12332;SDS011;6232;48.094;11.288;2023-05-14T01:58:56;27.33;;;17.43;;
12332;SDS011;6232;48.094;11.288;2023-05-14T02:01:42;36.03;;;19.63;;
12332;SDS011;6232;48.094;11.288;2023-05-14T02:04:27;28.73;;;17.60;;
12332;SDS011;6232;48.094;11.288;2023-05-14T02:07:13;24.67;;;17.47;;
12332;SDS011;6232;48.094;11.288;2023-05-14T02:09:58;27.17;;;16.70;;
12332;SDS011;6232;48.094;11.288;2023-05-14T02:12:44;24.33;;;16.30;;
12332;SDS011;6232;48.094;11.288;2023-05-14T02:15:29;23.43;;;17.30;;
12332;SDS011;6232;48.094;11.288;2023-05-14T02:18:15;28.20;;;17.83;;
12332;SDS011;6232;48.094;11.288;2023-05-14T02:21:00;27.57;;;18.20;;
12332;SDS011;6232;48.094;11.288;2023-05-14T02:23:46;24.50;;;16.73;;
12332;SDS011;6232;48.094;11.288;2023-05-14T02:26:33;28.40;;;19.77;;
12332;SDS011;6232;48.094;11.288;2023-05-14T02:29:19;28.10;;;18.03;;
12332;SDS011;6232;48.094;11.288;2023-05-14T02:32:04;30.97;;;18.80;;
12332;SDS011;6232;48.094;11.288;2023-05-14T02:34:50;27.43;;;17.83;;
12332;SDS011;6232;48.094;11.288;2023-05-14T02:37:35;26.20;;;18.20;;
12332;SDS011;6232;48.094;11.288;2023-05-14T02:40:21;29.03;;;18.60;;
12332;SDS011;6232;48.094;11.288;2023-05-14T02:43:06;26.20;;;16.90;;
12332;SDS011;6232;48.094;11.288;2023-05-14T02:45:52;32.53;;;18.70;;
12332;SDS011;6232;48.094;11.288;2023-05-14T02:48:38;30.47;;;18.93;;
12332;SDS011;6232;48.094;11.288;2023-05-14T02:51:23;29.23;;;17.40;;
12332;SDS011;6232;48.094;11.288;2023-05-14T02:54:09;32.20;;;20.90;;
12332;SDS011;6232;48.094;11.288;2023-05-14T02:56:54;35.03;;;19.80;;
12332;SDS011;6232;48.094;11.288;2023-05-14T02:59:40;34.73;;;21.10;;
12332;SDS011;6232;48.094;11.288;2023-05-14T03:02:25;32.03;;;21.80;;
12332;SDS011;6232;48.094;11.288;2023-05-14T03:05:11;32.00;;;20.33;;
12332;SDS011;6232;48.094;11.288;2023-05-14T03:07:57;33.47;;;19.80;;
12332;SDS011;6232;48.094;11.288;2023-05-14T03:10:42;32.00;;;20.80;;
12332;SDS011;6232;48.094;11.288;2023-05-14T03:13:28;36.40;;;21.60;;
12332;SDS011;6232;48.094;11.288;2023-05-14T03:16:13;31.10;;;20.40;;
12332;SDS011;6232;48.094;11.288;2023-05-14T03:18:59;35.37;;;20.33;;
12332;SDS011;6232;48.094;11.288;2023-05-14T03:21:45;31.20;;;20.67;;
12332;SDS011;6232;48.094;11.288;2023-05-14T03:24:30;34.90;;;22.10;;
12332;SDS011;6232;48.094;11.288;2023-05-14T03:27:17;37.17;;;20.50;;
12332;SDS011;6232;48.094;11.288;2023-05-14T03:30:03;31.57;;;20.37;;
12332;SDS011;6232;48.094;11.288;2023-05-14T03:32:48;31.53;;;19.77;;
12332;SDS011;6232;48.094;11.288;2023-05-14T03:35:34;32.53;;;20.60;;
12332;SDS011;6232;48.094;11.288;2023-05-14T03:38:20;42.60;;;21.30;;
12332;SDS011;6232;48.094;11.288;2023-05-14T03:41:05;32.30;;;21.40;;
12332;SDS011;6232;48.094;11.288;2023-05-14T03:43:51;32.40;;;20.17;;
12332;SDS011;6232;48.094;11.288;2023-05-14T03:46:37;36.67;;;21.43;;
12332;SDS011;6232;48.094;11.288;2023-05-14T03:49:22;40.90;;;21.33;;
12332;SDS011;6232;48.094;11.288;2023-05-14T03:52:08;29.73;;;19.10;;
12332;SDS011;6232;48.094;11.288;2023-05-14T03:54:53;32.63;;;19.40;;
12332;SDS011;6232;48.094;11.288;2023-05-14T03:57:39;36.43;;;19.43;;
12332;SDS011;6232;48.094;11.288;2023-05-14T04:00:24;32.37;;;19.90;;
12332;SDS011;6232;48.094;11.288;2023-05-14T04:03:10;31.73;;;19.27;;
12332;SDS011;6232;48.094;11.288;2023-05-14T04:05:56;29.50;;;19.13;;
12332;SDS011;6232;48.094;11.288;2023-05-14T04:08:41;31.93;;;19.17;;
12332;SDS011;6232;48.094;11.288;2023-05-14T04:11:27;35.63;;;19.80;;
12332;SDS011;6232;48.094;11.288;2023-05-14T04:14:12;32.07;;;19.47;;
12332;SDS011;6232;48.094;11.288;2023-05-14T04:16:58;32.03;;;19.10;;
12332;SDS011;6232;48.094;11.288;2023-05-14T04:19:43;37.07;;;19.97;;
12332;SDS011;6232;48.094;11.288;2023-05-14T04:22:29;36.03;;;20.50;;
12332;SDS011;6232;48.094;11.288;2023-05-14T04:25:14;30.57;;;19.20;;
12332;SDS011;6232;48.094;11.288;2023-05-14T04:28:00;29.37;;;18.80;;
12332;SDS011;6232;48.094;11.288;2023-05-14T04:30:47;30.37;;;18.87;;
12332;SDS011;6232;48.094;11.288;2023-05-14T04:33:32;27.37;;;18.47;;
12332;SDS011;6232;48.094;11.288;2023-05-14T04:36:18;25.90;;;17.77;;
12332;SDS011;6232;48.094;11.288;2023-05-14T04:39:03;28.10;;;18.73;;
12332;SDS011;6232;48.094;11.288;2023-05-14T04:41:50;26.37;;;17.20;;
12332;SDS011;6232;48.094;11.288;2023-05-14T04:44:35;28.30;;;18.27;;
12332;SDS011;6232;48.094;11.288;2023-05-14T04:47:22;33.20;;;18.03;;
12332;SDS011;6232;48.094;11.288;2023-05-14T04:50:07;27.43;;;17.93;;
12332;SDS011;6232;48.094;11.288;2023-05-14T04:52:54;25.80;;;17.40;;
12332;SDS011;6232;48.094;11.288;2023-05-14T04:55:40;30.87;;;18.67;;
12332;SDS011;6232;48.094;11.288;2023-05-14T04:58:25;25.00;;;16.57;;
12332;SDS011;6232;48.094;11.288;2023-05-14T05:01:13;24.27;;;15.90;;
12332;SDS011;6232;48.094;11.288;2023-05-14T05:03:59;24.10;;;17.07;;
12332;SDS011;6232;48.094;11.288;2023-05-14T05:06:45;26.10;;;16.70;;
12332;SDS011;6232;48.094;11.288;2023-05-14T05:09:30;25.57;;;16.80;;
12332;SDS011;6232;48.094;11.288;2023-05-14T05:12:16;25.13;;;16.77;;
12332;SDS011;6232;48.094;11.288;2023-05-14T05:15:01;36.63;;;17.40;;
12332;SDS011;6232;48.094;11.288;2023-05-14T05:17:47;32.13;;;18.40;;
12332;SDS011;6232;48.094;11.288;2023-05-14T05:20:33;27.97;;;17.57;;
12332;SDS011;6232;48.094;11.288;2023-05-14T05:23:18;29.20;;;17.50;;
12332;SDS011;6232;48.094;11.288;2023-05-14T05:26:04;25.97;;;17.97;;
12332;SDS011;6232;48.094;11.288;2023-05-14T05:28:50;29.67;;;18.20;;
12332;SDS011;6232;48.094;11.288;2023-05-14T05:31:35;24.77;;;16.17;;
12332;SDS011;6232;48.094;11.288;2023-05-14T05:34:21;25.87;;;17.47;;
12332;SDS011;6232;48.094;11.288;2023-05-14T05:37:06;22.70;;;17.07;;
12332;SDS011;6232;48.094;11.288;2023-05-14T05:39:53;28.20;;;17.13;;
12332;SDS011;6232;48.094;11.288;2023-05-14T05:42:39;22.83;;;16.20;;
12332;SDS011;6232;48.094;11.288;2023-05-14T05:45:25;25.60;;;15.87;;
12332;SDS011;6232;48.094;11.288;2023-05-14T05:48:10;29.50;;;17.87;;
12332;SDS011;6232;48.094;11.288;2023-05-14T05:50:56;25.20;;;16.30;;
12332;SDS011;6232;48.094;11.288;2023-05-14T05:53:41;27.40;;;16.47;;
12332;SDS011;6232;48.094;11.288;2023-05-14T05:56:27;22.67;;;15.30;;
12332;SDS011;6232;48.094;11.288;2023-05-14T05:59:13;26.13;;;16.13;;
12332;SDS011;6232;48.094;11.288;2023-05-14T06:01:58;21.47;;;15.20;;
12332;SDS011;6232;48.094;11.288;2023-05-14T06:04:44;22.60;;;15.50;;
12332;SDS011;6232;48.094;11.288;2023-05-14T06:07:30;20.40;;;15.10;;
12332;SDS011;6232;48.094;11.288;2023-05-14T06:10:15;22.53;;;13.77;;
12332;SDS011;6232;48.094;11.288;2023-05-14T06:13:01;25.07;;;14.90;;
12332;SDS011;6232;48.094;11.288;2023-05-14T06:15:46;25.37;;;15.43;;
12332;SDS011;6232;48.094;11.288;2023-05-14T06:18:32;51.93;;;15.60;;
12332;SDS011;6232;48.094;11.288;2023-05-14T06:21:17;28.33;;;15.80;;
12332;SDS011;6232;48.094;11.288;2023-05-14T06:24:03;21.47;;;14.80;;
12332;SDS011;6232;48.094;11.288;2023-05-14T06:26:49;22.30;;;15.87;;
12332;SDS011;6232;48.094;11.288;2023-05-14T06:29:34;24.83;;;15.20;;
12332;SDS011;6232;48.094;11.288;2023-05-14T06:32:20;23.00;;;15.33;;
12332;SDS011;6232;48.094;11.288;2023-05-14T06:35:06;22.13;;;15.50;;
12332;SDS011;6232;48.094;11.288;2023-05-14T06:37:51;20.83;;;15.60;;
12332;SDS011;6232;48.094;11.288;2023-05-14T06:40:37;22.50;;;15.10;;
12332;SDS011;6232;48.094;11.288;2023-05-14T06:43:22;21.90;;;15.40;;
12332;SDS011;6232;48.094;11.288;2023-05-14T06:46:08;41.47;;;26.03;;
12332;SDS011;6232;48.094;11.288;2023-05-14T06:48:53;27.63;;;18.47;;
12332;SDS011;6232;48.094;11.288;2023-05-14T06:51:39;29.13;;;19.10;;
12332;SDS011;6232;48.094;11.288;2023-05-14T06:54:26;20.07;;;15.33;;
12332;SDS011;6232;48.094;11.288;2023-05-14T06:57:11;23.10;;;16.13;;
12332;SDS011;6232;48.094;11.288;2023-05-14T06:59:57;23.13;;;17.27;;
12332;SDS011;6232;48.094;11.288;2023-05-14T07:02:42;29.63;;;14.60;;
12332;SDS011;6232;48.094;11.288;2023-05-14T07:05:28;21.83;;;15.37;;
12332;SDS011;6232;48.094;11.288;2023-05-14T07:08:13;20.60;;;14.60;;
12332;SDS011;6232;48.094;11.288;2023-05-14T07:10:59;27.03;;;15.87;;
12332;SDS011;6232;48.094;11.288;2023-05-14T07:13:45;25.23;;;15.83;;
12332;SDS011;6232;48.094;11.288;2023-05-14T07:16:30;22.83;;;14.27;;
12332;SDS011;6232;48.094;11.288;2023-05-14T07:19:16;24.70;;;16.20;;
12332;SDS011;6232;48.094;11.288;2023-05-14T07:22:01;27.37;;;15.40;;
12332;SDS011;6232;48.094;11.288;2023-05-14T07:24:47;22.67;;;13.77;;
12332;SDS011;6232;48.094;11.288;2023-05-14T07:27:33;24.37;;;14.77;;
12332;SDS011;6232;48.094;11.288;2023-05-14T07:30:19;19.17;;;13.03;;
12332;SDS011;6232;48.094;11.288;2023-05-14T07:33:04;20.97;;;13.87;;
12332;SDS011;6232;48.094;11.288;2023-05-14T07:35:50;19.27;;;14.17;;
12332;SDS011;6232;48.094;11.288;2023-05-14T07:38:35;17.90;;;12.70;;
12332;SDS011;6232;48.094;11.288;2023-05-14T07:41:21;21.20;;;14.53;;
12332;SDS011;6232;48.094;11.288;2023-05-14T07:44:07;18.77;;;14.20;;
12332;SDS011;6232;48.094;11.288;2023-05-14T07:46:52;22.30;;;12.83;;
12332;SDS011;6232;48.094;11.288;2023-05-14T07:49:38;15.50;;;12.40;;
12332;SDS011;6232;48.094;11.288;2023-05-14T07:52:23;13.90;;;12.43;;
12332;SDS011;6232;48.094;11.288;2023-05-14T07:55:09;15.87;;;12.43;;
12332;SDS011;6232;48.094;11.288;2023-05-14T07:57:55;14.50;;;10.60;;
12332;SDS011;6232;48.094;11.288;2023-05-14T08:00:40;14.60;;;10.53;;
12332;SDS011;6232;48.094;11.288;2023-05-14T08:03:26;22.37;;;16.30;;
12332;SDS011;6232;48.094;11.288;2023-05-14T08:06:11;12.40;;;9.50;;
12332;SDS011;6232;48.094;11.288;2023-05-14T08:08:57;18.87;;;10.83;;
12332;SDS011;6232;48.094;11.288;2023-05-14T08:11:43;11.87;;;10.23;;
12332;SDS011;6232;48.094;11.288;2023-05-14T08:14:28;17.13;;;11.60;;
12332;SDS011;6232;48.094;11.288;2023-05-14T08:17:14;16.93;;;12.63;;
12332;SDS011;6232;48.094;11.288;2023-05-14T08:19:59;11.80;;;9.83;;
12332;SDS011;6232;48.094;11.288;2023-05-14T08:22:45;14.40;;;11.37;;
12332;SDS011;6232;48.094;11.288;2023-05-14T08:25:31;16.53;;;12.47;;
12332;SDS011;6232;48.094;11.288;2023-05-14T08:28:17;13.40;;;10.13;;
12332;SDS011;6232;48.094;11.288;2023-05-14T08:31:02;16.80;;;10.90;;
12332;SDS011;6232;48.094;11.288;2023-05-14T08:33:48;15.50;;;11.17;;
12332;SDS011;6232;48.094;11.288;2023-05-14T08:36:33;15.07;;;11.87;;
12332;SDS011;6232;48.094;11.288;2023-05-14T08:39:19;17.60;;;12.70;;
12332;SDS011;6232;48.094;11.288;2023-05-14T08:42:05;16.13;;;11.20;;
12332;SDS011;6232;48.094;11.288;2023-05-14T08:45:01;12.17;;;9.73;;
12332;SDS011;6232;48.094;11.288;2023-05-14T08:47:47;14.63;;;10.07;;
12332;SDS011;6232;48.094;11.288;2023-05-14T08:50:36;14.27;;;10.23;;
12332;SDS011;6232;48.094;11.288;2023-05-14T08:53:22;18.57;;;11.03;;
12332;SDS011;6232;48.094;11.288;2023-05-14T08:56:07;17.53;;;10.47;;
12332;SDS011;6232;48.094;11.288;2023-05-14T08:58:53;16.17;;;11.17;;
12332;SDS011;6232;48.094;11.288;2023-05-14T09:01:41;19.53;;;12.17;;
12332;SDS011;6232;48.094;11.288;2023-05-14T09:04:28;17.20;;;12.10;;
12332;SDS011;6232;48.094;11.288;2023-05-14T09:07:14;17.90;;;11.57;;
12332;SDS011;6232;48.094;11.288;2023-05-14T09:10:00;15.97;;;11.10;;
12332;SDS011;6232;48.094;11.288;2023-05-14T09:12:46;15.90;;;12.13;;
12332;SDS011;6232;48.094;11.288;2023-05-14T09:15:32;16.77;;;11.93;;
12332;SDS011;6232;48.094;11.288;2023-05-14T09:18:19;16.27;;;11.23;;
12332;SDS011;6232;48.094;11.288;2023-05-14T09:21:04;16.43;;;10.73;;
12332;SDS011;6232;48.094;11.288;2023-05-14T09:23:52;14.70;;;11.10;;
12332;SDS011;6232;48.094;11.288;2023-05-14T09:26:38;16.60;;;10.83;;
12332;SDS011;6232;48.094;11.288;2023-05-14T09:29:23;16.43;;;10.30;;
12332;SDS011;6232;48.094;11.288;2023-05-14T09:32:10;16.57;;;11.30;;
12332;SDS011;6232;48.094;11.288;2023-05-14T09:34:55;16.60;;;12.13;;
12332;SDS011;6232;48.094;11.288;2023-05-14T09:37:42;19.87;;;11.83;;
12332;SDS011;6232;48.094;11.288;2023-05-14T09:40:28;14.87;;;11.33;;
12332;SDS011;6232;48.094;11.288;2023-05-14T09:43:13;13.27;;;10.97;;
12332;SDS011;6232;48.094;11.288;2023-05-14T09:45:59;16.50;;;11.20;;
12332;SDS011;6232;48.094;11.288;2023-05-14T09:48:44;14.87;;;10.73;;
12332;SDS011;6232;48.094;11.288;2023-05-14T09:51:30;15.70;;;11.70;;
12332;SDS011;6232;48.094;11.288;2023-05-14T09:54:16;17.13;;;12.07;;
12332;SDS011;6232;48.094;11.288;2023-05-14T09:57:02;19.40;;;13.53;;
12332;SDS011;6232;48.094;11.288;2023-05-14T09:59:47;16.67;;;11.70;;
12332;SDS011;6232;48.094;11.288;2023-05-14T10:02:36;19.13;;;13.13;;
12332;SDS011;6232;48.094;11.288;2023-05-14T10:05:22;17.77;;;12.53;;
12332;SDS011;6232;48.094;11.288;2023-05-14T10:08:09;17.53;;;13.47;;
12332;SDS011;6232;48.094;11.288;2023-05-14T10:10:57;16.63;;;12.27;;
12332;SDS011;6232;48.094;11.288;2023-05-14T10:13:45;17.30;;;12.73;;
12332;SDS011;6232;48.094;11.288;2023-05-14T10:16:42;18.63;;;12.83;;
12332;SDS011;6232;48.094;11.288;2023-05-14T10:19:28;19.53;;;12.00;;
12332;SDS011;6232;48.094;11.288;2023-05-14T10:22:15;14.50;;;10.63;;
12332;SDS011;6232;48.094;11.288;2023-05-14T10:25:02;13.50;;;10.63;;
12332;SDS011;6232;48.094;11.288;2023-05-14T10:27:48;17.43;;;10.70;;
12332;SDS011;6232;48.094;11.288;2023-05-14T10:30:33;12.60;;;10.03;;
12332;SDS011;6232;48.094;11.288;2023-05-14T10:33:19;15.07;;;10.83;;
12332;SDS011;6232;48.094;11.288;2023-05-14T10:36:06;15.13;;;10.47;;
12332;SDS011;6232;48.094;11.288;2023-05-14T10:38:54;14.03;;;11.47;;
12332;SDS011;6232;48.094;11.288;2023-05-14T10:41:40;11.40;;;9.03;;
12332;SDS011;6232;48.094;11.288;2023-05-14T10:44:25;13.00;;;10.27;;
12332;SDS011;6232;48.094;11.288;2023-05-14T10:47:11;12.77;;;10.50;;
12332;SDS011;6232;48.094;11.288;2023-05-14T10:49:57;15.50;;;12.20;;
12332;SDS011;6232;48.094;11.288;2023-05-14T10:52:43;13.40;;;10.60;;
12332;SDS011;6232;48.094;11.288;2023-05-14T10:55:29;15.30;;;12.23;;
12332;SDS011;6232;48.094;11.288;2023-05-14T10:58:15;19.70;;;11.53;;
12332;SDS011;6232;48.094;11.288;2023-05-14T11:01:02;16.27;;;12.20;;
12332;SDS011;6232;48.094;11.288;2023-05-14T11:03:47;18.63;;;9.50;;
12332;SDS011;6232;48.094;11.288;2023-05-14T11:06:37;12.60;;;9.97;;
12332;SDS011;6232;48.094;11.288;2023-05-14T11:09:23;13.03;;;10.20;;
12332;SDS011;6232;48.094;11.288;2023-05-14T11:12:10;16.30;;;11.03;;
12332;SDS011;6232;48.094;11.288;2023-05-14T11:14:56;15.17;;;11.00;;
12332;SDS011;6232;48.094;11.288;2023-05-14T11:17:43;12.83;;;10.63;;
12332;SDS011;6232;48.094;11.288;2023-05-14T11:20:28;14.50;;;11.80;;
12332;SDS011;6232;48.094;11.288;2023-05-14T11:23:14;13.90;;;10.60;;
12332;SDS011;6232;48.094;11.288;2023-05-14T11:26:00;13.87;;;11.20;;
12332;SDS011;6232;48.094;11.288;2023-05-14T11:28:45;15.27;;;12.03;;
12332;SDS011;6232;48.094;11.288;2023-05-14T11:31:31;14.80;;;11.50;;
12332;SDS011;6232;48.094;11.288;2023-05-14T11:34:17;13.10;;;10.50;;
12332;SDS011;6232;48.094;11.288;2023-05-14T11:37:03;12.17;;;10.10;;
12332;SDS011;6232;48.094;11.288;2023-05-14T11:39:50;13.37;;;9.90;;
12332;SDS011;6232;48.094;11.288;2023-05-14T11:42:36;10.53;;;8.90;;
12332;SDS011;6232;48.094;11.288;2023-05-14T11:45:23;13.47;;;9.43;;
12332;SDS011;6232;48.094;11.288;2023-05-14T11:48:12;12.73;;;9.57;;
12332;SDS011;6232;48.094;11.288;2023-05-14T11:51:03;12.03;;;8.30;;
12332;SDS011;6232;48.094;11.288;2023-05-14T11:53:48;10.53;;;9.33;;
12332;SDS011;6232;48.094;11.288;2023-05-14T11:56:34;12.93;;;9.63;;
12332;SDS011;6232;48.094;11.288;2023-05-14T11:59:20;11.67;;;9.43;;
12332;SDS011;6232;48.094;11.288;2023-05-14T12:02:09;10.17;;;9.03;;
12332;SDS011;6232;48.094;11.288;2023-05-14T12:04:55;11.70;;;9.13;;
12332;SDS011;6232;48.094;11.288;2023-05-14T12:07:43;10.47;;;8.40;;
12332;SDS011;6232;48.094;11.288;2023-05-14T12:10:29;11.00;;;9.13;;
12332;SDS011;6232;48.094;11.288;2023-05-14T12:13:16;9.13;;;7.97;;
12332;SDS011;6232;48.094;11.288;2023-05-14T12:16:02;12.77;;;8.50;;
12332;SDS011;6232;48.094;11.288;2023-05-14T12:18:48;11.30;;;9.07;;
12332;SDS011;6232;48.094;11.288;2023-05-14T12:21:33;10.50;;;8.83;;
12332;SDS011;6232;48.094;11.288;2023-05-14T12:24:19;8.63;;;7.70;;
12332;SDS011;6232;48.094;11.288;2023-05-14T12:27:05;10.20;;;7.73;;
12332;SDS011;6232;48.094;11.288;2023-05-14T12:30:04;9.47;;;7.27;;
12332;SDS011;6232;48.094;11.288;2023-05-14T12:32:50;7.23;;;6.00;;
12332;SDS011;6232;48.094;11.288;2023-05-14T12:35:37;7.40;;;6.70;;
12332;SDS011;6232;48.094;11.288;2023-05-14T12:38:23;8.40;;;6.63;;
12332;SDS011;6232;48.094;11.288;2023-05-14T12:41:08;6.30;;;5.70;;
12332;SDS011;6232;48.094;11.288;2023-05-14T12:43:54;5.80;;;5.20;;
12332;SDS011;6232;48.094;11.288;2023-05-14T12:46:40;7.93;;;5.67;;
12332;SDS011;6232;48.094;11.288;2023-05-14T12:49:25;5.77;;;5.20;;
12332;SDS011;6232;48.094;11.288;2023-05-14T12:52:11;10.23;;;5.80;;
12332;SDS011;6232;48.094;11.288;2023-05-14T12:54:56;6.07;;;5.27;;
12332;SDS011;6232;48.094;11.288;2023-05-14T12:57:42;5.60;;;5.10;;
12332;SDS011;6232;48.094;11.288;2023-05-14T13:00:28;6.33;;;5.73;;
12332;SDS011;6232;48.094;11.288;2023-05-14T13:03:13;10.03;;;6.50;;
12332;SDS011;6232;48.094;11.288;2023-05-14T13:06:02;5.63;;;5.13;;
12332;SDS011;6232;48.094;11.288;2023-05-14T13:08:51;5.80;;;5.30;;
12332;SDS011;6232;48.094;11.288;2023-05-14T13:11:37;5.80;;;5.10;;
12332;SDS011;6232;48.094;11.288;2023-05-14T13:14:22;4.70;;;4.30;;
12332;SDS011;6232;48.094;11.288;2023-05-14T13:17:08;3.77;;;3.47;;
12332;SDS011;6232;48.094;11.288;2023-05-14T13:19:53;4.20;;;3.80;;
12332;SDS011;6232;48.094;11.288;2023-05-14T13:22:39;10.70;;;4.40;;
12332;SDS011;6232;48.094;11.288;2023-05-14T13:25:25;4.10;;;3.70;;
12332;SDS011;6232;48.094;11.288;2023-05-14T13:28:11;5.33;;;3.70;;
12332;SDS011;6232;48.094;11.288;2023-05-14T13:31:03;3.97;;;3.67;;
12332;SDS011;6232;48.094;11.288;2023-05-14T13:33:49;6.10;;;3.63;;
12332;SDS011;6232;48.094;11.288;2023-05-14T13:36:35;5.30;;;4.80;;
12332;SDS011;6232;48.094;11.288;2023-05-14T13:39:23;4.77;;;4.37;;
12332;SDS011;6232;48.094;11.288;2023-05-14T13:42:11;4.10;;;3.70;;
12332;SDS011;6232;48.094;11.288;2023-05-14T13:44:57;7.63;;;3.53;;
12332;SDS011;6232;48.094;11.288;2023-05-14T13:47:43;3.97;;;3.67;;
12332;SDS011;6232;48.094;11.288;2023-05-14T13:50:29;3.17;;;2.90;;
12332;SDS011;6232;48.094;11.288;2023-05-14T13:53:14;3.10;;;2.90;;
12332;SDS011;6232;48.094;11.288;2023-05-14T13:56:00;8.63;;;3.00;;
12332;SDS011;6232;48.094;11.288;2023-05-14T13:58:46;3.67;;;3.07;;
12332;SDS011;6232;48.094;11.288;2023-05-14T14:01:31;4.40;;;3.73;;
12332;SDS011;6232;48.094;11.288;2023-05-14T14:04:17;3.60;;;3.17;;
12332;SDS011;6232;48.094;11.288;2023-05-14T14:07:04;3.53;;;3.23;;
12332;SDS011;6232;48.094;11.288;2023-05-14T14:09:49;3.15;;;2.95;;
12332;SDS011;6232;48.094;11.288;2023-05-14T14:12:35;3.13;;;2.92;;
12332;SDS011;6232;48.094;11.288;2023-05-14T14:15:21;3.55;;;3.22;;
12332;SDS011;6232;48.094;11.288;2023-05-14T14:18:06;3.38;;;2.90;;
12332;SDS011;6232;48.094;11.288;2023-05-14T14:20:52;3.65;;;3.35;;
12332;SDS011;6232;48.094;11.288;2023-05-14T14:23:37;3.25;;;2.97;;
12332;SDS011;6232;48.094;11.288;2023-05-14T14:26:23;3.40;;;3.10;;
12332;SDS011;6232;48.094;11.288;2023-05-14T14:29:08;2.65;;;2.45;;
12332;SDS011;6232;48.094;11.288;2023-05-14T14:31:54;3.88;;;2.80;;
12332;SDS011;6232;48.094;11.288;2023-05-14T14:34:39;3.38;;;2.88;;
12332;SDS011;6232;48.094;11.288;2023-05-14T14:37:25;3.83;;;3.30;;
12332;SDS011;6232;48.094;11.288;2023-05-14T14:40:11;4.10;;;2.97;;
12332;SDS011;6232;48.094;11.288;2023-05-14T14:42:56;2.53;;;2.33;;
12332;SDS011;6232;48.094;11.288;2023-05-14T14:45:42;2.70;;;2.50;;
12332;SDS011;6232;48.094;11.288;2023-05-14T14:48:33;3.40;;;3.10;;
12332;SDS011;6232;48.094;11.288;2023-05-14T14:51:21;3.47;;;3.17;;
12332;SDS011;6232;48.094;11.288;2023-05-14T14:54:07;3.33;;;3.03;;
12332;SDS011;6232;48.094;11.288;2023-05-14T14:56:52;3.87;;;3.47;;
12332;SDS011;6232;48.094;11.288;2023-05-14T14:59:38;3.83;;;3.43;;
12332;SDS011;6232;48.094;11.288;2023-05-14T15:02:24;3.50;;;3.20;;
12332;SDS011;6232;48.094;11.288;2023-05-14T15:05:09;3.90;;;3.47;;
12332;SDS011;6232;48.094;11.288;2023-05-14T15:07:55;3.23;;;2.93;;
12332;SDS011;6232;48.094;11.288;2023-05-14T15:10:40;3.60;;;3.20;;
12332;SDS011;6232;48.094;11.288;2023-05-14T15:13:26;3.03;;;2.83;;
12332;SDS011;6232;48.094;11.288;2023-05-14T15:16:12;2.70;;;2.50;;
12332;SDS011;6232;48.094;11.288;2023-05-14T15:18:58;2.70;;;2.50;;
12332;SDS011;6232;48.094;11.288;2023-05-14T15:21:43;2.67;;;2.47;;
12332;SDS011;6232;48.094;11.288;2023-05-14T15:24:29;3.20;;;2.90;;
12332;SDS011;6232;48.094;11.288;2023-05-14T15:27:15;3.67;;;3.00;;
12332;SDS011;6232;48.094;11.288;2023-05-14T15:30:00;3.40;;;3.10;;
12332;SDS011;6232;48.094;11.288;2023-05-14T15:32:46;2.97;;;2.67;;
12332;SDS011;6232;48.094;11.288;2023-05-14T15:35:31;3.30;;;2.70;;
12332;SDS011;6232;48.094;11.288;2023-05-14T15:38:17;3.87;;;3.03;;
12332;SDS011;6232;48.094;11.288;2023-05-14T15:41:03;3.43;;;3.13;;
12332;SDS011;6232;48.094;11.288;2023-05-14T15:43:48;4.30;;;3.63;;
12332;SDS011;6232;48.094;11.288;2023-05-14T15:46:34;3.70;;;3.40;;
12332;SDS011;6232;48.094;11.288;2023-05-14T15:49:19;3.23;;;2.93;;
12332;SDS011;6232;48.094;11.288;2023-05-14T15:52:05;5.07;;;3.53;;
12332;SDS011;6232;48.094;11.288;2023-05-14T15:54:51;3.13;;;2.70;;
12332;SDS011;6232;48.094;11.288;2023-05-14T15:57:36;3.70;;;2.63;;
12332;SDS011;6232;48.094;11.288;2023-05-14T16:00:02;3.07;;;2.30;;
12332;SDS011;6232;48.094;11.288;2023-05-14T16:02:53;2.60;;;2.40;;
12332;SDS011;6232;48.094;11.288;2023-05-14T16:05:18;3.93;;;3.43;;
12332;SDS011;6232;48.094;11.288;2023-05-14T16:07:44;2.83;;;2.63;;
12332;SDS011;6232;48.094;11.288;2023-05-14T16:10:09;3.40;;;3.10;;
12332;SDS011;6232;48.094;11.288;2023-05-14T16:12:34;9.13;;;5.30;;
12332;SDS011;6232;48.094;11.288;2023-05-14T16:15:00;7.83;;;6.90;;
12332;SDS011;6232;48.094;11.288;2023-05-14T16:17:26;11.03;;;8.50;;
12332;SDS011;6232;48.094;11.288;2023-05-14T16:19:52;10.30;;;7.47;;